Fithian, Illinois
Current Conditions -  °F | °C
As of 8:35 PM on Saturday 25 Oct 2014 (Local Time) from KDNV Reporting Station
Clear Clear  
Wind Chill: 59°   Ceiling: Unl
Heat Index: 59°   Visibility: 10mi
Dew Point: 43°   Wind: 7mph
Humidity: 54%   Direction: 290°WNW
Pressure: 29.95"   Gusts: NA
Location:  40.11°N, 87.87°W
Report Text: KDNV 260135Z AUTO 29006KT 10SM CLR 15/06 A2995 RMK AO2 T01520059
Loading
Personal Weather Stations






























Interactive Weather Map
Tropical Storm Tracking
New forecast layout! Learn more

10-Day Weather Forecast

Advertisements
Track Severe Weather on mobile